createdAt,value
2022-12-03T00:02:30.238Z,8.48
2022-12-03T00:05:33.093Z,9.10
2022-12-03T00:08:35.715Z,9.68
2022-12-03T00:11:38.543Z,8.25
2022-12-03T00:14:44.662Z,8.43
2022-12-03T00:17:47.849Z,8.75
2022-12-03T00:20:50.453Z,7.80
2022-12-03T00:23:53.354Z,10.02
2022-12-03T00:26:56.049Z,8.10
2022-12-03T00:29:58.785Z,9.50
2022-12-03T00:33:01.188Z,7.53
2022-12-03T00:36:04.246Z,8.18
2022-12-03T00:39:06.934Z,8.05
2022-12-03T00:42:09.835Z,8.23
2022-12-03T00:45:12.766Z,9.52
2022-12-03T00:48:15.698Z,8.23
2022-12-03T00:51:18.542Z,9.45
2022-12-03T00:54:23.581Z,8.43
2022-12-03T00:57:29.491Z,9.40
2022-12-03T01:00:32.307Z,9.05
2022-12-03T01:03:35.069Z,8.50
2022-12-03T01:06:37.923Z,9.27
2022-12-03T01:09:40.398Z,8.98
2022-12-03T01:12:43.309Z,7.87
2022-12-03T01:15:45.812Z,8.75
2022-12-03T01:18:48.671Z,9.30
2022-12-03T01:21:52.056Z,9.65
2022-12-03T01:24:55.052Z,9.52
2022-12-03T01:27:57.752Z,8.35
2022-12-03T01:31:19.185Z,10.40
2022-12-03T01:34:21.666Z,8.05
2022-12-03T01:37:26.098Z,8.45
2022-12-03T01:40:28.647Z,9.80
2022-12-03T01:43:32.986Z,8.55
2022-12-03T01:46:40.350Z,10.07
2022-12-03T01:49:48.201Z,9.60
2022-12-03T01:52:51.164Z,8.57
2022-12-03T01:55:54.015Z,7.72
2022-12-03T01:58:56.655Z,8.27
2022-12-03T02:02:00.505Z,8.15
2022-12-03T02:05:15.300Z,9.48
2022-12-03T02:08:28.261Z,7.72
2022-12-03T02:11:35.232Z,8.05
2022-12-03T02:14:38.016Z,8.50
2022-12-03T02:17:40.817Z,9.20
2022-12-03T02:21:13.988Z,7.18
2022-12-03T02:24:46.338Z,9.02
2022-12-03T02:27:49.899Z,7.72
2022-12-03T02:30:52.394Z,8.27
2022-12-03T02:33:55.207Z,8.40
2022-12-03T02:36:57.774Z,7.37
2022-12-03T02:40:06.624Z,9.50
2022-12-03T02:43:10.540Z,7.75
2022-12-03T02:46:13.316Z,9.07
2022-12-03T02:49:15.946Z,8.82
2022-12-03T02:52:19.480Z,8.65
2022-12-03T02:55:23.421Z,9.02
2022-12-03T02:58:29.777Z,7.60
2022-12-03T03:01:32.657Z,8.25
2022-12-03T03:04:35.529Z,8.40
2022-12-03T03:07:39.076Z,7.37
2022-12-03T03:10:43.357Z,8.75
2022-12-03T03:13:46.302Z,8.52
2022-12-03T03:16:56.011Z,8.93
2022-12-03T03:19:58.746Z,8.43
2022-12-03T03:23:18.937Z,8.20
2022-12-03T03:26:21.436Z,8.32
2022-12-03T03:29:24.843Z,7.72
2022-12-03T03:32:28.761Z,8.02
2022-12-03T03:35:31.599Z,9.82
2022-12-03T03:38:34.558Z,8.65
2022-12-03T03:41:38.840Z,8.98
2022-12-03T03:44:41.603Z,9.30
2022-12-03T03:47:45.155Z,8.32
2022-12-03T03:50:48.261Z,7.78
2022-12-03T03:53:51.898Z,8.15
2022-12-03T03:56:56.112Z,8.52
2022-12-03T03:59:59.708Z,8.10
2022-12-03T04:03:04.327Z,10.65
2022-12-03T04:06:07.514Z,8.63
2022-12-03T04:09:09.970Z,8.30
2022-12-03T04:12:31.927Z,9.23
2022-12-03T04:15:34.591Z,8.02
2022-12-03T04:18:43.036Z,8.10
2022-12-03T04:22:04.195Z,8.23
2022-12-03T04:25:28.799Z,9.48
2022-12-03T04:28:49.113Z,8.73
2022-12-03T04:32:10.723Z,7.85
2022-12-03T04:35:32.682Z,8.40
2022-12-03T04:38:35.508Z,8.48
2022-12-03T04:41:38.030Z,8.07
2022-12-03T04:44:40.911Z,9.32
2022-12-03T04:47:45.027Z,10.70
2022-12-03T04:50:48.140Z,8.95
2022-12-03T04:53:50.612Z,8.57
2022-12-03T04:56:53.396Z,10.27
2022-12-03T04:59:56.099Z,9.30
2022-12-03T05:02:59.324Z,9.00
2022-12-03T05:06:01.853Z,8.88
2022-12-03T05:09:04.817Z,9.20
2022-12-03T05:12:07.317Z,10.48
2022-12-03T05:15:11.372Z,10.32
2022-12-03T05:18:16.788Z,10.88
2022-12-03T05:21:19.532Z,8.52
2022-12-03T05:24:22.002Z,9.05
2022-12-03T05:27:24.763Z,6.70
2022-12-03T05:30:27.401Z,8.07
2022-12-03T05:33:30.185Z,9.32
2022-12-03T05:36:32.724Z,10.38
2022-12-03T05:39:35.666Z,8.10
2022-12-03T05:42:56.768Z,9.55
2022-12-03T05:45:59.579Z,9.10
2022-12-03T05:49:05.806Z,10.00
2022-12-03T05:52:08.583Z,10.88
2022-12-03T05:55:11.874Z,10.73
2022-12-03T05:58:14.637Z,9.63
2022-12-03T06:01:17.155Z,8.82
2022-12-03T06:04:19.928Z,10.38
2022-12-03T06:07:22.458Z,9.98
2022-12-03T06:10:26.023Z,8.25
2022-12-03T06:13:28.433Z,8.27
2022-12-03T06:16:31.353Z,9.85
2022-12-03T06:19:34.269Z,8.57
2022-12-03T06:22:37.039Z,10.07
2022-12-03T06:25:39.628Z,10.75
2022-12-03T06:28:46.392Z,10.40
2022-12-03T06:31:48.869Z,8.88
2022-12-03T06:34:52.028Z,10.10
2022-12-03T06:37:54.715Z,9.20
2022-12-03T06:40:57.638Z,8.27
2022-12-03T06:44:00.513Z,10.13
2022-12-03T06:47:03.355Z,9.93
2022-12-03T06:50:07.349Z,8.30
2022-12-03T06:53:10.086Z,10.07
2022-12-03T06:56:12.779Z,10.18
2022-12-03T06:59:15.579Z,9.60
2022-12-03T07:02:18.155Z,9.50
2022-12-03T07:05:20.845Z,8.27
2022-12-03T07:08:23.417Z,9.93
2022-12-03T07:11:32.018Z,10.27
2022-12-03T07:14:34.427Z,12.02
2022-12-03T07:17:37.605Z,9.98
2022-12-03T07:20:40.045Z,11.60
2022-12-03T07:23:43.018Z,11.48
2022-12-03T07:26:45.492Z,10.18
2022-12-03T07:29:48.254Z,10.38
2022-12-03T07:32:50.718Z,11.60
2022-12-03T07:35:53.630Z,9.73
2022-12-03T07:38:56.219Z,9.95
2022-12-03T07:41:59.030Z,10.40
2022-12-03T07:45:01.421Z,9.27
2022-12-03T07:48:05.746Z,9.18
2022-12-03T07:51:10.519Z,9.30
2022-12-03T07:54:17.108Z,9.77
2022-12-03T07:57:19.513Z,10.40
2022-12-03T08:00:23.234Z,8.85
2022-12-03T08:03:25.948Z,11.32
2022-12-03T08:06:28.358Z,10.43
2022-12-03T08:09:31.504Z,10.65
2022-12-03T08:12:40.771Z,10.07
2022-12-03T08:15:43.955Z,12.73
2022-12-03T08:18:48.167Z,9.55
2022-12-03T08:21:53.116Z,11.50
2022-12-03T08:24:59.174Z,10.05
2022-12-03T08:28:13.196Z,10.30
2022-12-03T08:31:20.125Z,12.18
2022-12-03T08:34:26.220Z,11.38
2022-12-03T08:37:29.766Z,10.10
2022-12-03T08:40:35.713Z,10.05
2022-12-03T08:43:42.860Z,10.52
2022-12-03T08:46:48.239Z,10.77
2022-12-03T08:50:26.138Z,11.32
2022-12-03T08:53:33.679Z,12.25
2022-12-03T08:56:37.200Z,12.02
2022-12-03T08:59:44.198Z,11.88
2022-12-03T09:02:51.308Z,10.63
2022-12-03T09:05:54.036Z,10.18
2022-12-03T09:08:56.556Z,12.88
2022-12-03T09:11:59.435Z,11.05
2022-12-03T09:15:02.032Z,10.25
2022-12-03T09:18:05.707Z,12.10
2022-12-03T09:21:08.221Z,11.48
2022-12-03T09:24:10.980Z,10.50
2022-12-03T09:27:13.634Z,10.80
2022-12-03T09:30:16.836Z,9.75
2022-12-03T09:33:19.677Z,11.18
2022-12-03T09:36:22.576Z,10.65
2022-12-03T09:39:25.029Z,10.45
2022-12-03T09:42:28.752Z,12.05
2022-12-03T09:45:31.296Z,11.60
2022-12-03T09:48:35.360Z,9.75
2022-12-03T09:51:38.166Z,9.45
2022-12-03T09:54:46.881Z,9.25
2022-12-03T09:57:51.673Z,10.60
2022-12-03T10:00:55.351Z,10.93
2022-12-03T10:03:58.674Z,10.48
2022-12-03T10:07:01.461Z,10.07
2022-12-03T10:10:06.751Z,9.30
2022-12-03T10:13:19.758Z,9.80
2022-12-03T10:16:30.061Z,11.17
2022-12-03T10:19:35.796Z,10.88
2022-12-03T10:22:38.652Z,10.73
2022-12-03T10:26:03.060Z,13.18
2022-12-03T10:29:42.674Z,10.88
2022-12-03T10:32:48.018Z,10.80
2022-12-03T10:35:50.727Z,9.73
2022-12-03T10:39:09.361Z,9.63
2022-12-03T10:42:16.357Z,11.93
2022-12-03T10:45:25.331Z,9.80
2022-12-03T10:48:28.158Z,10.55
2022-12-03T10:51:30.966Z,11.10
2022-12-03T10:54:35.462Z,10.68
2022-12-03T10:57:42.396Z,11.55
2022-12-03T11:00:49.669Z,10.82
2022-12-03T11:03:54.068Z,10.30
2022-12-03T11:06:57.953Z,10.90
2022-12-03T11:10:02.718Z,11.02
2022-12-03T11:13:50.510Z,11.75
2022-12-03T11:16:53.008Z,10.60
2022-12-03T11:19:55.794Z,11.38
2022-12-03T11:22:59.393Z,9.57
2022-12-03T11:26:02.135Z,12.60
2022-12-03T11:29:14.075Z,10.80
2022-12-03T11:32:38.645Z,11.60
2022-12-03T11:36:03.837Z,10.27
2022-12-03T11:39:08.396Z,11.95
2022-12-03T11:42:38.577Z,10.30
2022-12-03T11:45:41.456Z,10.63
2022-12-03T11:48:45.704Z,8.57
2022-12-03T11:51:49.107Z,8.75
2022-12-03T11:54:56.440Z,8.93
2022-12-03T11:58:04.983Z,8.33
2022-12-03T12:01:08.849Z,9.00
2022-12-03T12:04:30.113Z,8.25
2022-12-03T12:07:36.695Z,8.05
2022-12-03T12:10:48.457Z,8.10
2022-12-03T12:13:59.841Z,7.22
2022-12-03T12:17:03.688Z,7.35
2022-12-03T12:20:26.243Z,7.68
2022-12-03T12:23:29.229Z,8.00
2022-12-03T12:26:31.727Z,7.60
2022-12-03T12:29:36.834Z,8.30
2022-12-03T12:32:53.891Z,6.35
2022-12-03T12:35:56.658Z,7.85
2022-12-03T12:38:59.828Z,8.45
2022-12-03T12:42:06.494Z,8.70
2022-12-03T12:45:14.864Z,8.32
2022-12-03T12:48:25.318Z,9.02
2022-12-03T12:51:27.838Z,7.43
2022-12-03T12:54:30.638Z,7.25
2022-12-03T12:57:34.168Z,7.70
2022-12-03T13:00:37.790Z,6.95
2022-12-03T13:03:40.345Z,6.57
2022-12-03T13:06:44.653Z,7.05
2022-12-03T13:09:49.023Z,6.80
2022-12-03T13:12:52.313Z,7.22
2022-12-03T13:16:11.631Z,6.30
2022-12-03T13:19:26.505Z,7.50
2022-12-03T13:22:29.581Z,7.03
2022-12-03T13:29:06.339Z,6.87
2022-12-03T13:32:18.612Z,6.85
2022-12-03T13:35:31.011Z,6.20
2022-12-03T13:38:33.790Z,7.55
2022-12-03T13:41:54.887Z,7.07
2022-12-03T13:44:57.645Z,7.10
2022-12-03T13:48:02.952Z,6.43
2022-12-03T13:51:43.581Z,6.78
2022-12-03T13:54:51.228Z,6.78
2022-12-03T13:57:54.971Z,7.87
2022-12-03T14:00:57.626Z,5.65
2022-12-03T14:04:00.576Z,6.90
2022-12-03T14:07:03.055Z,7.45
2022-12-03T14:10:08.438Z,6.35
2022-12-03T14:13:10.899Z,7.10
2022-12-03T14:16:13.685Z,6.65
2022-12-03T14:19:19.110Z,6.12
2022-12-03T14:22:23.727Z,7.03
2022-12-03T14:25:26.262Z,6.68
2022-12-03T14:28:29.114Z,7.65
2022-12-03T14:31:31.835Z,6.55
2022-12-03T14:34:34.647Z,7.18
2022-12-03T14:37:37.386Z,7.20
2022-12-03T14:40:40.086Z,6.85
2022-12-03T14:43:42.593Z,6.90
2022-12-03T14:46:45.342Z,7.03
2022-12-03T14:49:48.145Z,6.70
2022-12-03T14:52:51.180Z,7.45
2022-12-03T14:55:55.703Z,7.15
2022-12-03T14:58:59.026Z,7.53
2022-12-03T15:02:02.002Z,6.18
2022-12-03T15:05:04.942Z,6.82
2022-12-03T15:08:09.334Z,7.12
2022-12-03T15:11:12.118Z,8.02
2022-12-03T15:14:15.167Z,6.70
2022-12-03T15:17:25.385Z,7.37
2022-12-03T15:20:33.251Z,7.95
2022-12-03T15:23:35.969Z,7.35
2022-12-03T15:26:38.392Z,7.62
2022-12-03T15:29:41.396Z,6.97
2022-12-03T15:32:44.180Z,6.57
2022-12-03T15:35:47.018Z,5.28
2022-12-03T15:38:50.970Z,7.22
2022-12-03T15:41:53.918Z,7.80
2022-12-03T15:44:57.075Z,7.32
2022-12-03T15:48:00.022Z,6.80
2022-12-03T15:51:02.506Z,8.20
2022-12-03T15:54:06.549Z,6.82
2022-12-03T15:57:09.020Z,6.68
2022-12-03T16:00:13.987Z,7.60
2022-12-03T16:03:17.865Z,7.07
2022-12-03T16:06:20.649Z,6.72
2022-12-03T16:09:27.027Z,6.95
2022-12-03T16:12:30.085Z,8.38
2022-12-03T16:15:32.996Z,8.40
2022-12-03T16:18:35.916Z,7.25
2022-12-03T16:21:39.603Z,7.78
2022-12-03T16:24:42.109Z,6.60
2022-12-03T16:27:45.041Z,7.47
2022-12-03T16:30:47.704Z,8.20
2022-12-03T16:33:50.619Z,6.50
2022-12-03T16:36:53.188Z,7.47
2022-12-03T16:39:56.989Z,7.53
2022-12-03T16:42:59.646Z,7.22
2022-12-03T16:46:10.048Z,6.28
2022-12-03T16:49:12.794Z,7.00
2022-12-03T16:52:16.548Z,7.55
2022-12-03T16:55:18.990Z,8.50
2022-12-03T16:58:21.983Z,8.40
2022-12-03T17:01:24.843Z,6.90
2022-12-03T17:04:27.615Z,6.85
2022-12-03T17:07:30.138Z,8.05
2022-12-03T17:10:33.256Z,8.95
2022-12-03T17:13:35.722Z,9.27
2022-12-03T17:16:38.448Z,9.73
2022-12-03T17:19:41.030Z,12.55
2022-12-03T17:22:43.779Z,12.27
2022-12-03T17:25:46.258Z,10.82
2022-12-03T17:28:49.089Z,9.52
2022-12-03T17:31:51.609Z,9.93
2022-12-03T17:34:54.419Z,8.82
2022-12-03T17:37:56.937Z,9.65
2022-12-03T17:40:59.648Z,9.38
2022-12-03T17:44:07.256Z,8.90
2022-12-03T17:47:12.653Z,8.32
2022-12-03T17:50:15.206Z,8.45
2022-12-03T17:53:17.914Z,8.95
2022-12-03T17:56:20.924Z,9.10
2022-12-03T17:59:24.364Z,8.55
2022-12-03T18:02:26.910Z,9.35
2022-12-03T18:05:29.703Z,8.57
2022-12-03T18:08:32.338Z,9.13
2022-12-03T18:11:35.185Z,9.00
2022-12-03T18:14:37.633Z,9.77
2022-12-03T18:17:40.451Z,8.65
2022-12-03T18:20:43.189Z,11.05
2022-12-03T18:23:46.197Z,8.05
2022-12-03T18:26:48.758Z,8.93
2022-12-03T18:29:51.955Z,9.55
2022-12-03T18:32:54.932Z,9.13
2022-12-03T18:35:58.389Z,10.27
2022-12-03T18:39:01.520Z,10.50
2022-12-03T18:42:22.004Z,8.82
2022-12-03T18:45:24.583Z,9.70
2022-12-03T18:48:27.410Z,9.48
2022-12-03T18:51:29.949Z,9.55
2022-12-03T18:54:32.766Z,9.73
2022-12-03T18:57:35.218Z,9.40
2022-12-03T19:00:40.217Z,8.45
2022-12-03T19:03:42.752Z,9.07
2022-12-03T19:06:45.508Z,9.73
2022-12-03T19:09:48.013Z,9.45
2022-12-03T19:12:50.962Z,10.30
2022-12-03T19:15:55.155Z,9.63
2022-12-03T19:18:58.321Z,11.60
2022-12-03T19:22:01.206Z,9.18
2022-12-03T19:25:04.731Z,9.45
2022-12-03T19:28:07.708Z,9.63
2022-12-03T19:31:18.202Z,9.77
2022-12-03T19:34:21.235Z,9.73
2022-12-03T19:37:23.975Z,9.35
2022-12-03T19:40:26.570Z,9.15
2022-12-03T19:43:31.819Z,9.45
2022-12-03T19:46:34.392Z,9.90
2022-12-03T19:49:37.174Z,8.70
2022-12-03T19:52:39.619Z,10.30
2022-12-03T19:55:42.411Z,8.57
2022-12-03T19:58:46.556Z,9.05
2022-12-03T20:01:50.080Z,9.05
2022-12-03T20:04:52.880Z,11.12
2022-12-03T20:07:55.391Z,8.98
2022-12-03T20:11:14.062Z,9.85
2022-12-03T20:14:17.280Z,9.10
2022-12-03T20:17:19.992Z,9.13
2022-12-03T20:20:22.598Z,10.25
2022-12-03T20:23:25.768Z,10.30
2022-12-03T20:26:28.838Z,9.57
2022-12-03T20:29:31.671Z,11.70
2022-12-03T20:32:37.365Z,9.88
2022-12-03T20:35:43.470Z,10.90
2022-12-03T20:38:46.347Z,10.07
2022-12-03T20:42:07.865Z,9.60
2022-12-03T20:45:10.693Z,9.40
2022-12-03T20:48:13.569Z,10.77
2022-12-03T20:51:18.811Z,11.43
2022-12-03T20:54:21.623Z,10.73
2022-12-03T20:57:24.395Z,11.18
2022-12-03T21:00:27.638Z,11.32
2022-12-03T21:03:30.112Z,11.82
2022-12-03T21:06:35.833Z,10.10
2022-12-03T21:09:38.427Z,10.23
2022-12-03T21:12:41.197Z,11.93
2022-12-03T21:15:44.835Z,9.90
2022-12-03T21:18:47.689Z,11.15
2022-12-03T21:21:50.362Z,10.63
2022-12-03T21:24:53.157Z,11.50
2022-12-03T21:27:55.775Z,11.57
2022-12-03T21:31:04.374Z,10.95
2022-12-03T21:37:11.150Z,10.32
2022-12-03T21:40:13.827Z,9.48
2022-12-03T21:43:16.610Z,12.32
2022-12-03T21:47:10.002Z,11.12
2022-12-03T21:49:42.050Z,11.55
2022-12-03T21:52:44.577Z,12.43
2022-12-03T21:55:47.297Z,10.05
2022-12-03T21:58:49.815Z,11.32
2022-12-03T22:01:52.641Z,12.07
2022-12-03T22:04:55.403Z,11.73
2022-12-03T22:07:57.990Z,11.93
2022-12-03T22:11:05.499Z,11.63
2022-12-03T22:14:09.864Z,11.57
2022-12-03T22:17:12.714Z,10.88
2022-12-03T22:20:15.637Z,12.00
2022-12-03T22:23:18.425Z,13.00
2022-12-03T22:26:20.921Z,10.68
2022-12-03T22:29:23.703Z,12.27
2022-12-03T22:32:26.292Z,10.73
2022-12-03T22:35:29.172Z,12.27
2022-12-03T22:38:33.003Z,10.73
2022-12-03T22:41:35.794Z,11.63
2022-12-03T22:44:38.319Z,12.32
2022-12-03T22:47:41.103Z,11.57
2022-12-03T22:50:45.674Z,10.80
2022-12-03T22:53:53.798Z,12.75
2022-12-03T22:56:57.087Z,12.82
2022-12-03T22:59:59.926Z,11.45
2022-12-03T23:03:03.565Z,9.60
2022-12-03T23:06:11.154Z,10.48
2022-12-03T23:09:14.046Z,11.90
2022-12-03T23:12:16.823Z,11.50
2022-12-03T23:15:19.268Z,10.38
2022-12-03T23:18:22.472Z,11.48
2022-12-03T23:21:30.324Z,10.52
2022-12-03T23:24:36.525Z,10.35
2022-12-03T23:27:39.065Z,11.85
2022-12-03T23:30:41.874Z,11.55
2022-12-03T23:33:44.627Z,10.65
2022-12-03T23:36:47.383Z,10.80
2022-12-03T23:39:50.219Z,10.27
2022-12-03T23:42:53.042Z,10.70
2022-12-03T23:46:01.822Z,10.85
2022-12-03T23:49:05.118Z,10.20
2022-12-03T23:52:07.574Z,10.52
2022-12-03T23:55:10.592Z,10.77
2022-12-03T23:58:13.111Z,10.18
